sensor_id;sensor_type;location;lat;lon;timestamp;P1;durP1;ratioP1;P2;durP2;ratioP2
3101;SDS011;1561;42.666;23.392;2023-05-09T00:03:21;5.93;;;5.10;;
3101;SDS011;1561;42.666;23.392;2023-05-09T00:09:08;5.20;;;4.70;;
3101;SDS011;1561;42.666;23.392;2023-05-09T00:14:55;5.40;;;4.90;;
3101;SDS011;1561;42.666;23.392;2023-05-09T00:20:43;5.40;;;5.00;;
3101;SDS011;1561;42.666;23.392;2023-05-09T00:23:17;6.80;;;5.47;;
3101;SDS011;1561;42.666;23.392;2023-05-09T00:28:53;5.40;;;5.00;;
3101;SDS011;1561;42.666;23.392;2023-05-09T00:31:25;7.97;;;5.33;;
3101;SDS011;1561;42.666;23.392;2023-05-09T00:34:07;6.20;;;5.60;;
3101;SDS011;1561;42.666;23.392;2023-05-09T00:39:41;6.07;;;5.47;;
3101;SDS011;1561;42.666;23.392;2023-05-09T00:45:13;6.10;;;5.50;;
3101;SDS011;1561;42.666;23.392;2023-05-09T00:50:56;7.00;;;6.30;;
3101;SDS011;1561;42.666;23.392;2023-05-09T00:53:23;8.70;;;5.63;;
3101;SDS011;1561;42.666;23.392;2023-05-09T00:55:59;6.27;;;5.67;;
3101;SDS011;1561;42.666;23.392;2023-05-09T00:58:33;6.20;;;5.60;;
3101;SDS011;1561;42.666;23.392;2023-05-09T01:04:12;6.50;;;5.90;;
3101;SDS011;1561;42.666;23.392;2023-05-09T01:09:48;6.00;;;5.40;;
3101;SDS011;1561;42.666;23.392;2023-05-09T01:15:43;6.33;;;5.57;;
3101;SDS011;1561;42.666;23.392;2023-05-09T01:18:24;6.20;;;5.70;;
3101;SDS011;1561;42.666;23.392;2023-05-09T01:24:12;6.67;;;6.07;;
3101;SDS011;1561;42.666;23.392;2023-05-09T01:29:50;8.90;;;6.20;;
3101;SDS011;1561;42.666;23.392;2023-05-09T01:32:23;6.33;;;5.73;;
3101;SDS011;1561;42.666;23.392;2023-05-09T01:37:58;5.53;;;5.10;;
3101;SDS011;1561;42.666;23.392;2023-05-09T01:43:32;6.03;;;5.43;;
3101;SDS011;1561;42.666;23.392;2023-05-09T01:46:09;7.90;;;5.47;;
3101;SDS011;1561;42.666;23.392;2023-05-09T01:51:40;9.27;;;5.67;;
3101;SDS011;1561;42.666;23.392;2023-05-09T01:54:10;6.63;;;6.00;;
3101;SDS011;1561;42.666;23.392;2023-05-09T01:56:39;6.57;;;5.90;;
3101;SDS011;1561;42.666;23.392;2023-05-09T02:02:15;6.40;;;5.87;;
3101;SDS011;1561;42.666;23.392;2023-05-09T02:04:50;6.47;;;5.87;;
3101;SDS011;1561;42.666;23.392;2023-05-09T02:07:23;8.80;;;6.03;;
3101;SDS011;1561;42.666;23.392;2023-05-09T02:13:06;6.27;;;5.73;;
3101;SDS011;1561;42.666;23.392;2023-05-09T02:18:52;6.53;;;5.87;;
3101;SDS011;1561;42.666;23.392;2023-05-09T02:21:47;6.60;;;6.00;;
3101;SDS011;1561;42.666;23.392;2023-05-09T02:27:25;6.43;;;5.83;;
3101;SDS011;1561;42.666;23.392;2023-05-09T02:33:23;8.87;;;6.27;;
3101;SDS011;1561;42.666;23.392;2023-05-09T02:35:56;6.30;;;5.70;;
3101;SDS011;1561;42.666;23.392;2023-05-09T02:38:26;6.87;;;6.10;;
3101;SDS011;1561;42.666;23.392;2023-05-09T02:43:58;6.90;;;6.20;;
3101;SDS011;1561;42.666;23.392;2023-05-09T02:49:33;7.20;;;6.50;;
3101;SDS011;1561;42.666;23.392;2023-05-09T03:01:01;7.07;;;6.40;;
3101;SDS011;1561;42.666;23.392;2023-05-09T03:03:53;9.43;;;8.43;;
3101;SDS011;1561;42.666;23.392;2023-05-09T03:09:39;9.83;;;7.57;;
3101;SDS011;1561;42.666;23.392;2023-05-09T03:15:19;9.30;;;7.60;;
3101;SDS011;1561;42.666;23.392;2023-05-09T03:17:58;8.40;;;7.60;;
3101;SDS011;1561;42.666;23.392;2023-05-09T03:20:27;8.60;;;7.70;;
3101;SDS011;1561;42.666;23.392;2023-05-09T03:25:45;9.33;;;8.33;;
3101;SDS011;1561;42.666;23.392;2023-05-09T03:28:15;8.43;;;7.63;;
3101;SDS011;1561;42.666;23.392;2023-05-09T03:33:48;9.53;;;8.53;;
3101;SDS011;1561;42.666;23.392;2023-05-09T03:39:31;8.73;;;7.83;;
3101;SDS011;1561;42.666;23.392;2023-05-09T03:45:15;7.80;;;7.10;;
3101;SDS011;1561;42.666;23.392;2023-05-09T03:51:20;10.80;;;8.30;;
3101;SDS011;1561;42.666;23.392;2023-05-09T04:00:01;8.67;;;7.87;;
3101;SDS011;1561;42.666;23.392;2023-05-09T04:05:34;8.67;;;7.77;;
3101;SDS011;1561;42.666;23.392;2023-05-09T04:08:09;8.83;;;8.03;;
3101;SDS011;1561;42.666;23.392;2023-05-09T04:13:38;8.07;;;7.23;;
3101;SDS011;1561;42.666;23.392;2023-05-09T04:16:05;10.50;;;7.33;;
3101;SDS011;1561;42.666;23.392;2023-05-09T04:24:39;5.90;;;5.40;;
3101;SDS011;1561;42.666;23.392;2023-05-09T04:27:06;6.30;;;5.70;;
3101;SDS011;1561;42.666;23.392;2023-05-09T04:29:34;8.30;;;5.53;;
3101;SDS011;1561;42.666;23.392;2023-05-09T04:35:07;5.82;;;5.38;;
3101;SDS011;1561;42.666;23.392;2023-05-09T04:40:37;5.60;;;5.00;;
3101;SDS011;1561;42.666;23.392;2023-05-09T04:43:05;8.18;;;5.47;;
3101;SDS011;1561;42.666;23.392;2023-05-09T04:48:40;6.05;;;4.78;;
3101;SDS011;1561;42.666;23.392;2023-05-09T04:57:13;6.72;;;4.80;;
3101;SDS011;1561;42.666;23.392;2023-05-09T05:02:43;4.50;;;4.07;;
3101;SDS011;1561;42.666;23.392;2023-05-09T05:10:54;2.83;;;2.63;;
3101;SDS011;1561;42.666;23.392;2023-05-09T05:13:23;2.93;;;2.60;;
3101;SDS011;1561;42.666;23.392;2023-05-09T05:31:07;2.83;;;2.60;;
3101;SDS011;1561;42.666;23.392;2023-05-09T05:40:03;5.03;;;2.40;;
3101;SDS011;1561;42.666;23.392;2023-05-09T05:42:49;3.80;;;2.70;;
3101;SDS011;1561;42.666;23.392;2023-05-09T05:45:18;2.93;;;2.67;;
3101;SDS011;1561;42.666;23.392;2023-05-09T05:50:52;4.30;;;4.00;;
3101;SDS011;1561;42.666;23.392;2023-05-09T06:08:38;2.17;;;1.67;;
3101;SDS011;1561;42.666;23.392;2023-05-09T06:13:54;5.93;;;1.50;;
3101;SDS011;1561;42.666;23.392;2023-05-09T06:16:21;2.53;;;2.13;;
3101;SDS011;1561;42.666;23.392;2023-05-09T06:18:49;2.53;;;1.80;;
3101;SDS011;1561;42.666;23.392;2023-05-09T06:21:17;2.57;;;1.77;;
3101;SDS011;1561;42.666;23.392;2023-05-09T06:23:45;1.80;;;1.70;;
3101;SDS011;1561;42.666;23.392;2023-05-09T06:26:12;1.77;;;1.67;;
3101;SDS011;1561;42.666;23.392;2023-05-09T06:28:39;2.20;;;1.47;;
3101;SDS011;1561;42.666;23.392;2023-05-09T06:31:06;1.30;;;1.20;;
3101;SDS011;1561;42.666;23.392;2023-05-09T06:33:33;1.03;;;1.03;;
3101;SDS011;1561;42.666;23.392;2023-05-09T06:35:59;2.80;;;1.93;;
3101;SDS011;1561;42.666;23.392;2023-05-09T06:38:34;3.70;;;1.77;;
3101;SDS011;1561;42.666;23.392;2023-05-09T06:50:11;2.10;;;1.67;;
3101;SDS011;1561;42.666;23.392;2023-05-09T06:52:39;1.90;;;1.80;;
3101;SDS011;1561;42.666;23.392;2023-05-09T06:55:08;1.90;;;1.47;;
3101;SDS011;1561;42.666;23.392;2023-05-09T06:57:35;1.97;;;1.40;;
3101;SDS011;1561;42.666;23.392;2023-05-09T07:00:04;1.43;;;1.33;;
3101;SDS011;1561;42.666;23.392;2023-05-09T07:02:31;1.80;;;1.70;;
3101;SDS011;1561;42.666;23.392;2023-05-09T07:04:57;2.30;;;1.53;;
3101;SDS011;1561;42.666;23.392;2023-05-09T07:07:25;2.20;;;2.00;;
3101;SDS011;1561;42.666;23.392;2023-05-09T07:09:51;1.80;;;1.70;;
3101;SDS011;1561;42.666;23.392;2023-05-09T07:15:09;1.80;;;1.70;;
3101;SDS011;1561;42.666;23.392;2023-05-09T07:17:35;1.90;;;1.80;;
3101;SDS011;1561;42.666;23.392;2023-05-09T07:20:02;1.87;;;1.73;;
3101;SDS011;1561;42.666;23.392;2023-05-09T07:22:30;3.10;;;1.90;;
3101;SDS011;1561;42.666;23.392;2023-05-09T07:24:57;2.03;;;1.80;;
3101;SDS011;1561;42.666;23.392;2023-05-09T07:27:23;1.87;;;1.77;;
3101;SDS011;1561;42.666;23.392;2023-05-09T07:29:52;1.97;;;1.83;;
3101;SDS011;1561;42.666;23.392;2023-05-09T07:32:26;6.20;;;1.60;;
3101;SDS011;1561;42.666;23.392;2023-05-09T07:34:53;2.53;;;1.90;;
3101;SDS011;1561;42.666;23.392;2023-05-09T07:37:25;1.83;;;1.73;;
3101;SDS011;1561;42.666;23.392;2023-05-09T07:39:56;1.23;;;1.10;;
3101;SDS011;1561;42.666;23.392;2023-05-09T07:42:27;2.40;;;1.80;;
3101;SDS011;1561;42.666;23.392;2023-05-09T07:50:53;1.43;;;1.33;;
3101;SDS011;1561;42.666;23.392;2023-05-09T07:53:22;1.70;;;1.60;;
3101;SDS011;1561;42.666;23.392;2023-05-09T07:55:56;1.93;;;1.83;;
3101;SDS011;1561;42.666;23.392;2023-05-09T07:58:23;2.00;;;1.60;;
3101;SDS011;1561;42.666;23.392;2023-05-09T08:03:54;1.80;;;1.70;;
3101;SDS011;1561;42.666;23.392;2023-05-09T08:12:32;1.33;;;1.23;;
3101;SDS011;1561;42.666;23.392;2023-05-09T08:26:52;2.10;;;1.60;;
3101;SDS011;1561;42.666;23.392;2023-05-09T08:29:37;1.93;;;1.83;;
3101;SDS011;1561;42.666;23.392;2023-05-09T08:38:13;1.85;;;1.75;;
3101;SDS011;1561;42.666;23.392;2023-05-09T08:40:40;1.30;;;1.30;;
3101;SDS011;1561;42.666;23.392;2023-05-09T08:43:31;1.48;;;1.38;;
3101;SDS011;1561;42.666;23.392;2023-05-09T08:46:10;1.42;;;1.38;;
3101;SDS011;1561;42.666;23.392;2023-05-09T08:48:40;1.48;;;1.48;;
3101;SDS011;1561;42.666;23.392;2023-05-09T08:51:08;1.90;;;1.60;;
3101;SDS011;1561;42.666;23.392;2023-05-09T08:53:41;1.40;;;1.30;;
3101;SDS011;1561;42.666;23.392;2023-05-09T08:56:16;2.35;;;2.15;;
3101;SDS011;1561;42.666;23.392;2023-05-09T09:01:49;1.83;;;1.63;;
3101;SDS011;1561;42.666;23.392;2023-05-09T09:04:20;1.23;;;1.20;;
3101;SDS011;1561;42.666;23.392;2023-05-09T09:09:52;1.30;;;1.23;;
3101;SDS011;1561;42.666;23.392;2023-05-09T09:18:29;1.38;;;1.27;;
3101;SDS011;1561;42.666;23.392;2023-05-09T09:21:00;1.85;;;1.40;;
3101;SDS011;1561;42.666;23.392;2023-05-09T09:23:40;2.45;;;1.83;;
3101;SDS011;1561;42.666;23.392;2023-05-09T09:26:10;1.80;;;1.70;;
3101;SDS011;1561;42.666;23.392;2023-05-09T09:28:39;2.43;;;2.00;;
3101;SDS011;1561;42.666;23.392;2023-05-09T09:31:20;1.80;;;1.70;;
3101;SDS011;1561;42.666;23.392;2023-05-09T09:34:08;1.93;;;1.83;;
3101;SDS011;1561;42.666;23.392;2023-05-09T09:36:34;1.77;;;1.67;;
3101;SDS011;1561;42.666;23.392;2023-05-09T09:39:03;2.17;;;2.07;;
3101;SDS011;1561;42.666;23.392;2023-05-09T09:44:51;1.87;;;1.77;;
3101;SDS011;1561;42.666;23.392;2023-05-09T09:47:29;1.83;;;1.73;;
3101;SDS011;1561;42.666;23.392;2023-05-09T09:50:03;2.10;;;2.00;;
3101;SDS011;1561;42.666;23.392;2023-05-09T10:07:56;2.00;;;1.90;;
3101;SDS011;1561;42.666;23.392;2023-05-09T10:10:29;3.08;;;1.98;;
3101;SDS011;1561;42.666;23.392;2023-05-09T10:12:59;2.45;;;2.25;;
3101;SDS011;1561;42.666;23.392;2023-05-09T10:15:30;2.10;;;2.00;;
3101;SDS011;1561;42.666;23.392;2023-05-09T10:24:12;2.10;;;2.00;;
3101;SDS011;1561;42.666;23.392;2023-05-09T10:26:40;2.50;;;2.30;;
3101;SDS011;1561;42.666;23.392;2023-05-09T10:29:17;2.53;;;2.38;;
3101;SDS011;1561;42.666;23.392;2023-05-09T10:38:06;2.90;;;2.53;;
3101;SDS011;1561;42.666;23.392;2023-05-09T10:40:55;7.57;;;4.70;;
3101;SDS011;1561;42.666;23.392;2023-05-09T10:55:19;3.30;;;3.10;;
3101;SDS011;1561;42.666;23.392;2023-05-09T10:57:51;6.40;;;3.53;;
3101;SDS011;1561;42.666;23.392;2023-05-09T11:00:23;4.83;;;3.70;;
3101;SDS011;1561;42.666;23.392;2023-05-09T11:03:04;3.57;;;3.30;;
3101;SDS011;1561;42.666;23.392;2023-05-09T11:08:35;4.43;;;3.73;;
3101;SDS011;1561;42.666;23.392;2023-05-09T11:11:05;5.60;;;3.77;;
3101;SDS011;1561;42.666;23.392;2023-05-09T11:13:39;3.90;;;3.50;;
3101;SDS011;1561;42.666;23.392;2023-05-09T11:16:18;3.50;;;3.20;;
3101;SDS011;1561;42.666;23.392;2023-05-09T11:18:50;8.53;;;3.20;;
3101;SDS011;1561;42.666;23.392;2023-05-09T11:21:58;3.33;;;3.03;;
3101;SDS011;1561;42.666;23.392;2023-05-09T11:24:27;6.77;;;3.60;;
3101;SDS011;1561;42.666;23.392;2023-05-09T11:27:03;3.00;;;2.80;;
3101;SDS011;1561;42.666;23.392;2023-05-09T11:29:48;2.80;;;2.50;;
3101;SDS011;1561;42.666;23.392;2023-05-09T11:32:21;3.20;;;2.90;;
3101;SDS011;1561;42.666;23.392;2023-05-09T11:34:48;6.90;;;3.90;;
3101;SDS011;1561;42.666;23.392;2023-05-09T11:37:21;3.93;;;3.63;;
3101;SDS011;1561;42.666;23.392;2023-05-09T11:39:55;3.73;;;3.33;;
3101;SDS011;1561;42.666;23.392;2023-05-09T11:48:41;3.53;;;3.23;;
3101;SDS011;1561;42.666;23.392;2023-05-09T11:51:14;4.23;;;3.83;;
3101;SDS011;1561;42.666;23.392;2023-05-09T11:53:43;4.63;;;4.23;;
3101;SDS011;1561;42.666;23.392;2023-05-09T11:56:19;4.80;;;3.83;;
3101;SDS011;1561;42.666;23.392;2023-05-09T12:04:56;13.23;;;2.90;;
3101;SDS011;1561;42.666;23.392;2023-05-09T12:07:31;3.90;;;3.40;;
3101;SDS011;1561;42.666;23.392;2023-05-09T12:09:58;5.00;;;3.50;;
3101;SDS011;1561;42.666;23.392;2023-05-09T12:15:34;4.07;;;3.47;;
3101;SDS011;1561;42.666;23.392;2023-05-09T12:18:06;4.40;;;4.00;;
3101;SDS011;1561;42.666;23.392;2023-05-09T12:20:42;4.00;;;3.53;;
3101;SDS011;1561;42.666;23.392;2023-05-09T12:23:09;3.80;;;3.40;;
3101;SDS011;1561;42.666;23.392;2023-05-09T12:25:45;3.73;;;2.90;;
3101;SDS011;1561;42.666;23.392;2023-05-09T12:31:16;4.40;;;4.00;;
3101;SDS011;1561;42.666;23.392;2023-05-09T12:33:43;2.93;;;2.73;;
3101;SDS011;1561;42.666;23.392;2023-05-09T12:36:20;3.90;;;3.53;;
3101;SDS011;1561;42.666;23.392;2023-05-09T12:45:19;3.10;;;2.90;;
3101;SDS011;1561;42.666;23.392;2023-05-09T12:47:50;4.13;;;3.47;;
3101;SDS011;1561;42.666;23.392;2023-05-09T12:50:21;3.10;;;2.83;;
3101;SDS011;1561;42.666;23.392;2023-05-09T12:56:15;4.70;;;2.63;;
3101;SDS011;1561;42.666;23.392;2023-05-09T13:10:58;3.27;;;3.07;;
3101;SDS011;1561;42.666;23.392;2023-05-09T13:13:30;3.57;;;3.23;;
3101;SDS011;1561;42.666;23.392;2023-05-09T13:25:11;7.33;;;4.00;;
3101;SDS011;1561;42.666;23.392;2023-05-09T13:30:53;4.37;;;3.97;;
3101;SDS011;1561;42.666;23.392;2023-05-09T13:42:58;4.70;;;4.13;;
3101;SDS011;1561;42.666;23.392;2023-05-09T13:45:25;4.70;;;3.40;;
3101;SDS011;1561;42.666;23.392;2023-05-09T13:47:59;3.00;;;2.70;;
3101;SDS011;1561;42.666;23.392;2023-05-09T13:50:25;3.57;;;3.27;;
3101;SDS011;1561;42.666;23.392;2023-05-09T13:56:04;3.47;;;3.17;;
3101;SDS011;1561;42.666;23.392;2023-05-09T13:58:36;5.33;;;3.10;;
3101;SDS011;1561;42.666;23.392;2023-05-09T14:01:04;3.40;;;3.10;;
3101;SDS011;1561;42.666;23.392;2023-05-09T14:09:20;3.67;;;3.23;;
3101;SDS011;1561;42.666;23.392;2023-05-09T14:11:48;5.30;;;3.60;;
3101;SDS011;1561;42.666;23.392;2023-05-09T14:14:16;4.37;;;3.97;;
3101;SDS011;1561;42.666;23.392;2023-05-09T14:16:51;2.97;;;2.67;;
3101;SDS011;1561;42.666;23.392;2023-05-09T14:19:20;3.83;;;3.50;;
3101;SDS011;1561;42.666;23.392;2023-05-09T14:21:47;2.80;;;2.60;;
3101;SDS011;1561;42.666;23.392;2023-05-09T14:24:19;2.50;;;2.37;;
3101;SDS011;1561;42.666;23.392;2023-05-09T14:26:46;2.47;;;2.27;;
3101;SDS011;1561;42.666;23.392;2023-05-09T14:29:17;3.20;;;1.97;;
3101;SDS011;1561;42.666;23.392;2023-05-09T14:31:44;2.33;;;2.13;;
3101;SDS011;1561;42.666;23.392;2023-05-09T14:34:13;2.60;;;2.13;;
3101;SDS011;1561;42.666;23.392;2023-05-09T14:36:40;2.10;;;2.00;;
3101;SDS011;1561;42.666;23.392;2023-05-09T14:39:08;2.10;;;2.00;;
3101;SDS011;1561;42.666;23.392;2023-05-09T14:41:37;1.77;;;1.67;;
3101;SDS011;1561;42.666;23.392;2023-05-09T14:44:07;2.40;;;2.20;;
3101;SDS011;1561;42.666;23.392;2023-05-09T14:46:35;2.53;;;1.93;;
3101;SDS011;1561;42.666;23.392;2023-05-09T14:49:02;1.77;;;1.67;;
3101;SDS011;1561;42.666;23.392;2023-05-09T14:51:29;4.20;;;1.80;;
3101;SDS011;1561;42.666;23.392;2023-05-09T14:56:57;1.93;;;1.83;;
3101;SDS011;1561;42.666;23.392;2023-05-09T15:05:37;2.13;;;1.97;;
3101;SDS011;1561;42.666;23.392;2023-05-09T15:14:12;2.10;;;1.97;;
3101;SDS011;1561;42.666;23.392;2023-05-09T15:16:42;1.80;;;1.70;;
3101;SDS011;1561;42.666;23.392;2023-05-09T15:19:10;2.30;;;2.10;;
3101;SDS011;1561;42.666;23.392;2023-05-09T15:21:39;2.03;;;1.90;;
3101;SDS011;1561;42.666;23.392;2023-05-09T15:24:06;2.07;;;1.83;;
3101;SDS011;1561;42.666;23.392;2023-05-09T15:26:34;1.83;;;1.60;;
3101;SDS011;1561;42.666;23.392;2023-05-09T15:29:04;1.70;;;1.60;;
3101;SDS011;1561;42.666;23.392;2023-05-09T15:31:34;2.13;;;1.83;;
3101;SDS011;1561;42.666;23.392;2023-05-09T15:34:04;1.67;;;1.57;;
3101;SDS011;1561;42.666;23.392;2023-05-09T15:36:38;1.77;;;1.67;;
3101;SDS011;1561;42.666;23.392;2023-05-09T15:39:05;2.03;;;1.90;;
3101;SDS011;1561;42.666;23.392;2023-05-09T15:41:34;1.70;;;1.60;;
3101;SDS011;1561;42.666;23.392;2023-05-09T15:44:08;4.07;;;1.63;;
3101;SDS011;1561;42.666;23.392;2023-05-09T15:46:38;4.37;;;2.00;;
3101;SDS011;1561;42.666;23.392;2023-05-09T15:49:05;1.90;;;1.80;;
3101;SDS011;1561;42.666;23.392;2023-05-09T15:51:32;4.87;;;2.40;;
3101;SDS011;1561;42.666;23.392;2023-05-09T15:54:00;2.83;;;2.30;;
3101;SDS011;1561;42.666;23.392;2023-05-09T15:56:29;1.33;;;1.23;;
3101;SDS011;1561;42.666;23.392;2023-05-09T15:59:01;3.00;;;2.57;;
3101;SDS011;1561;42.666;23.392;2023-05-09T16:01:31;2.37;;;1.97;;
3101;SDS011;1561;42.666;23.392;2023-05-09T16:04:08;3.33;;;2.67;;
3101;SDS011;1561;42.666;23.392;2023-05-09T16:06:38;3.83;;;3.23;;
3101;SDS011;1561;42.666;23.392;2023-05-09T16:09:05;5.40;;;4.13;;
3101;SDS011;1561;42.666;23.392;2023-05-09T16:11:34;6.87;;;4.40;;
3101;SDS011;1561;42.666;23.392;2023-05-09T16:14:02;8.77;;;4.40;;
3101;SDS011;1561;42.666;23.392;2023-05-09T16:16:33;5.80;;;3.63;;
3101;SDS011;1561;42.666;23.392;2023-05-09T16:19:02;3.57;;;3.17;;
3101;SDS011;1561;42.666;23.392;2023-05-09T16:21:43;5.00;;;3.93;;
3101;SDS011;1561;42.666;23.392;2023-05-09T16:24:13;3.30;;;2.67;;
3101;SDS011;1561;42.666;23.392;2023-05-09T16:26:41;3.23;;;2.50;;
3101;SDS011;1561;42.666;23.392;2023-05-09T16:29:12;2.90;;;2.43;;
3101;SDS011;1561;42.666;23.392;2023-05-09T16:31:41;3.50;;;2.87;;
3101;SDS011;1561;42.666;23.392;2023-05-09T16:34:09;3.50;;;3.13;;
3101;SDS011;1561;42.666;23.392;2023-05-09T16:36:44;3.43;;;3.13;;
3101;SDS011;1561;42.666;23.392;2023-05-09T16:39:15;2.87;;;2.63;;
3101;SDS011;1561;42.666;23.392;2023-05-09T16:41:43;2.50;;;2.30;;
3101;SDS011;1561;42.666;23.392;2023-05-09T16:44:11;3.03;;;2.73;;
3101;SDS011;1561;42.666;23.392;2023-05-09T16:46:44;3.73;;;2.80;;
3101;SDS011;1561;42.666;23.392;2023-05-09T16:49:24;8.43;;;4.53;;
3101;SDS011;1561;42.666;23.392;2023-05-09T16:51:54;3.53;;;2.77;;
3101;SDS011;1561;42.666;23.392;2023-05-09T16:54:22;2.17;;;2.03;;
3101;SDS011;1561;42.666;23.392;2023-05-09T16:56:49;1.93;;;1.83;;
3101;SDS011;1561;42.666;23.392;2023-05-09T16:59:17;2.37;;;2.17;;
3101;SDS011;1561;42.666;23.392;2023-05-09T17:01:46;4.93;;;2.43;;
3101;SDS011;1561;42.666;23.392;2023-05-09T17:04:15;2.30;;;2.10;;
3101;SDS011;1561;42.666;23.392;2023-05-09T17:06:41;2.37;;;2.20;;
3101;SDS011;1561;42.666;23.392;2023-05-09T17:09:15;4.10;;;2.07;;
3101;SDS011;1561;42.666;23.392;2023-05-09T17:11:45;2.23;;;2.13;;
3101;SDS011;1561;42.666;23.392;2023-05-09T17:14:12;2.40;;;2.20;;
3101;SDS011;1561;42.666;23.392;2023-05-09T17:16:39;2.80;;;2.00;;
3101;SDS011;1561;42.666;23.392;2023-05-09T17:19:07;2.80;;;2.60;;
3101;SDS011;1561;42.666;23.392;2023-05-09T17:21:38;3.50;;;3.10;;
3101;SDS011;1561;42.666;23.392;2023-05-09T17:24:19;2.73;;;2.53;;
3101;SDS011;1561;42.666;23.392;2023-05-09T17:26:46;2.63;;;2.43;;
3101;SDS011;1561;42.666;23.392;2023-05-09T17:29:14;3.80;;;3.10;;
3101;SDS011;1561;42.666;23.392;2023-05-09T17:31:44;3.20;;;2.90;;
3101;SDS011;1561;42.666;23.392;2023-05-09T17:34:11;2.57;;;2.37;;
3101;SDS011;1561;42.666;23.392;2023-05-09T17:36:39;3.33;;;3.03;;
3101;SDS011;1561;42.666;23.392;2023-05-09T17:39:23;2.50;;;2.30;;
3101;SDS011;1561;42.666;23.392;2023-05-09T17:41:52;3.13;;;2.83;;
3101;SDS011;1561;42.666;23.392;2023-05-09T17:44:19;2.60;;;2.40;;
3101;SDS011;1561;42.666;23.392;2023-05-09T17:46:47;2.50;;;2.30;;
3101;SDS011;1561;42.666;23.392;2023-05-09T17:49:14;3.53;;;3.13;;
3101;SDS011;1561;42.666;23.392;2023-05-09T17:54:49;3.00;;;2.70;;
3101;SDS011;1561;42.666;23.392;2023-05-09T17:57:31;2.10;;;1.90;;
3101;SDS011;1561;42.666;23.392;2023-05-09T18:00:00;2.97;;;2.67;;
3101;SDS011;1561;42.666;23.392;2023-05-09T18:02:43;4.80;;;3.23;;
3101;SDS011;1561;42.666;23.392;2023-05-09T18:05:12;4.80;;;2.90;;
3101;SDS011;1561;42.666;23.392;2023-05-09T18:07:41;2.80;;;2.30;;
3101;SDS011;1561;42.666;23.392;2023-05-09T18:10:17;3.10;;;2.80;;
3101;SDS011;1561;42.666;23.392;2023-05-09T18:12:45;3.47;;;2.80;;
3101;SDS011;1561;42.666;23.392;2023-05-09T18:15:25;3.20;;;2.90;;
3101;SDS011;1561;42.666;23.392;2023-05-09T18:17:53;2.97;;;2.37;;
3101;SDS011;1561;42.666;23.392;2023-05-09T18:20:27;2.90;;;2.00;;
3101;SDS011;1561;42.666;23.392;2023-05-09T18:22:56;2.70;;;2.50;;
3101;SDS011;1561;42.666;23.392;2023-05-09T18:25:25;4.10;;;3.07;;
3101;SDS011;1561;42.666;23.392;2023-05-09T18:28:00;3.00;;;2.70;;
3101;SDS011;1561;42.666;23.392;2023-05-09T18:30:27;4.47;;;2.80;;
3101;SDS011;1561;42.666;23.392;2023-05-09T18:32:55;3.40;;;3.10;;
3101;SDS011;1561;42.666;23.392;2023-05-09T18:35:28;4.60;;;3.30;;
3101;SDS011;1561;42.666;23.392;2023-05-09T18:37:59;4.50;;;2.80;;
3101;SDS011;1561;42.666;23.392;2023-05-09T18:40:27;3.87;;;3.30;;
3101;SDS011;1561;42.666;23.392;2023-05-09T18:42:58;3.03;;;2.73;;
3101;SDS011;1561;42.666;23.392;2023-05-09T18:45:25;3.37;;;2.83;;
3101;SDS011;1561;42.666;23.392;2023-05-09T18:47:56;2.97;;;2.63;;
3101;SDS011;1561;42.666;23.392;2023-05-09T18:50:28;4.33;;;3.33;;
3101;SDS011;1561;42.666;23.392;2023-05-09T18:52:58;3.17;;;2.97;;
3101;SDS011;1561;42.666;23.392;2023-05-09T18:55:26;4.37;;;3.77;;
3101;SDS011;1561;42.666;23.392;2023-05-09T18:57:53;4.33;;;3.70;;
3101;SDS011;1561;42.666;23.392;2023-05-09T19:00:20;9.10;;;6.10;;
3101;SDS011;1561;42.666;23.392;2023-05-09T19:05:45;4.23;;;3.87;;
3101;SDS011;1561;42.666;23.392;2023-05-09T19:08:12;5.33;;;4.53;;
3101;SDS011;1561;42.666;23.392;2023-05-09T19:10:42;5.97;;;4.60;;
3101;SDS011;1561;42.666;23.392;2023-05-09T19:13:10;4.10;;;3.67;;
3101;SDS011;1561;42.666;23.392;2023-05-09T19:15:38;5.10;;;4.50;;
3101;SDS011;1561;42.666;23.392;2023-05-09T19:18:11;6.50;;;5.23;;
3101;SDS011;1561;42.666;23.392;2023-05-09T19:20:39;6.23;;;4.90;;
3101;SDS011;1561;42.666;23.392;2023-05-09T19:29:12;6.43;;;5.30;;
3101;SDS011;1561;42.666;23.392;2023-05-09T19:31:41;5.73;;;5.17;;
3101;SDS011;1561;42.666;23.392;2023-05-09T19:34:09;6.57;;;5.50;;
3101;SDS011;1561;42.666;23.392;2023-05-09T19:36:40;5.77;;;5.17;;
3101;SDS011;1561;42.666;23.392;2023-05-09T19:42:19;5.13;;;4.63;;
3101;SDS011;1561;42.666;23.392;2023-05-09T19:44:50;4.47;;;4.07;;
3101;SDS011;1561;42.666;23.392;2023-05-09T19:53:17;3.27;;;2.97;;
3101;SDS011;1561;42.666;23.392;2023-05-09T19:55:44;6.30;;;3.37;;
3101;SDS011;1561;42.666;23.392;2023-05-09T19:58:14;4.10;;;3.50;;
3101;SDS011;1561;42.666;23.392;2023-05-09T20:03:52;3.50;;;3.20;;
3101;SDS011;1561;42.666;23.392;2023-05-09T20:06:21;5.40;;;3.77;;
3101;SDS011;1561;42.666;23.392;2023-05-09T20:08:50;6.40;;;4.30;;
3101;SDS011;1561;42.666;23.392;2023-05-09T20:17:18;6.40;;;5.00;;
3101;SDS011;1561;42.666;23.392;2023-05-09T20:19:47;5.67;;;4.53;;
3101;SDS011;1561;42.666;23.392;2023-05-09T20:22:17;5.60;;;4.97;;
3101;SDS011;1561;42.666;23.392;2023-05-09T20:24:47;5.67;;;4.90;;
3101;SDS011;1561;42.666;23.392;2023-05-09T20:27:14;5.83;;;5.10;;
3101;SDS011;1561;42.666;23.392;2023-05-09T20:29:45;5.80;;;5.30;;
3101;SDS011;1561;42.666;23.392;2023-05-09T20:32:18;7.47;;;5.10;;
3101;SDS011;1561;42.666;23.392;2023-05-09T20:37:53;7.70;;;5.80;;
3101;SDS011;1561;42.666;23.392;2023-05-09T20:40:35;5.90;;;5.30;;
3101;SDS011;1561;42.666;23.392;2023-05-09T20:43:05;6.50;;;5.80;;
3101;SDS011;1561;42.666;23.392;2023-05-09T20:45:33;6.47;;;5.20;;
3101;SDS011;1561;42.666;23.392;2023-05-09T20:51:08;8.90;;;6.73;;
3101;SDS011;1561;42.666;23.392;2023-05-09T20:56:39;8.27;;;6.20;;
3101;SDS011;1561;42.666;23.392;2023-05-09T21:05:08;8.60;;;7.13;;
3101;SDS011;1561;42.666;23.392;2023-05-09T21:07:35;8.67;;;7.77;;
3101;SDS011;1561;42.666;23.392;2023-05-09T21:13:09;9.00;;;7.27;;
3101;SDS011;1561;42.666;23.392;2023-05-09T21:21:41;7.93;;;6.60;;
3101;SDS011;1561;42.666;23.392;2023-05-09T21:24:10;9.47;;;7.03;;
3101;SDS011;1561;42.666;23.392;2023-05-09T21:29:49;12.40;;;8.20;;
3101;SDS011;1561;42.666;23.392;2023-05-09T21:35:20;10.60;;;8.33;;
3101;SDS011;1561;42.666;23.392;2023-05-09T21:40:49;9.73;;;8.60;;
3101;SDS011;1561;42.666;23.392;2023-05-09T21:43:17;10.50;;;7.57;;
3101;SDS011;1561;42.666;23.392;2023-05-09T21:49:01;9.30;;;7.53;;
3101;SDS011;1561;42.666;23.392;2023-05-09T21:54:30;10.20;;;8.37;;
3101;SDS011;1561;42.666;23.392;2023-05-09T21:56:57;10.83;;;7.70;;
3101;SDS011;1561;42.666;23.392;2023-05-09T21:59:42;11.13;;;8.60;;
3101;SDS011;1561;42.666;23.392;2023-05-09T22:05:13;8.30;;;6.50;;
3101;SDS011;1561;42.666;23.392;2023-05-09T22:07:41;7.43;;;6.30;;
3101;SDS011;1561;42.666;23.392;2023-05-09T22:16:25;6.07;;;5.47;;
3101;SDS011;1561;42.666;23.392;2023-05-09T22:22:11;7.00;;;6.30;;
3101;SDS011;1561;42.666;23.392;2023-05-09T22:27:55;17.50;;;13.70;;
3101;SDS011;1561;42.666;23.392;2023-05-09T22:30:25;13.70;;;9.43;;
3101;SDS011;1561;42.666;23.392;2023-05-09T22:35:54;15.63;;;12.43;;
3101;SDS011;1561;42.666;23.392;2023-05-09T22:38:22;16.10;;;12.97;;
3101;SDS011;1561;42.666;23.392;2023-05-09T22:40:50;11.93;;;9.10;;
3101;SDS011;1561;42.666;23.392;2023-05-09T22:43:16;28.20;;;12.03;;
3101;SDS011;1561;42.666;23.392;2023-05-09T22:48:47;11.30;;;9.10;;
3101;SDS011;1561;42.666;23.392;2023-05-09T22:54:18;9.17;;;7.50;;
3101;SDS011;1561;42.666;23.392;2023-05-09T22:56:45;11.20;;;9.20;;
3101;SDS011;1561;42.666;23.392;2023-05-09T23:02:16;19.30;;;14.50;;
3101;SDS011;1561;42.666;23.392;2023-05-09T23:07:48;16.70;;;12.93;;
3101;SDS011;1561;42.666;23.392;2023-05-09T23:19:27;11.07;;;9.40;;
3101;SDS011;1561;42.666;23.392;2023-05-09T23:22:07;9.83;;;6.63;;
3101;SDS011;1561;42.666;23.392;2023-05-09T23:24:34;7.20;;;6.47;;
3101;SDS011;1561;42.666;23.392;2023-05-09T23:27:01;7.20;;;5.67;;
3101;SDS011;1561;42.666;23.392;2023-05-09T23:50:54;9.50;;;7.97;;